sensor_id;sensor_type;location;lat;lon;timestamp;P1;durP1;ratioP1;P2;durP2;ratioP2
40044;SDS011;25735;48.122;11.422;2022-10-26T00:01:18;5.40;;;3.05;;
40044;SDS011;25735;48.122;11.422;2022-10-26T00:03:44;6.75;;;3.10;;
40044;SDS011;25735;48.122;11.422;2022-10-26T00:08:37;5.43;;;3.25;;
40044;SDS011;25735;48.122;11.422;2022-10-26T00:11:02;3.92;;;3.35;;
40044;SDS011;25735;48.122;11.422;2022-10-26T00:13:28;4.90;;;2.90;;
40044;SDS011;25735;48.122;11.422;2022-10-26T00:15:54;5.05;;;3.85;;
40044;SDS011;25735;48.122;11.422;2022-10-26T00:18:19;4.93;;;3.42;;
40044;SDS011;25735;48.122;11.422;2022-10-26T00:20:45;5.85;;;2.92;;
40044;SDS011;25735;48.122;11.422;2022-10-26T00:23:10;4.00;;;2.95;;
40044;SDS011;25735;48.122;11.422;2022-10-26T00:25:35;3.78;;;2.70;;
40044;SDS011;25735;48.122;11.422;2022-10-26T00:28:01;5.95;;;3.50;;
40044;SDS011;25735;48.122;11.422;2022-10-26T00:30:26;4.70;;;3.00;;
40044;SDS011;25735;48.122;11.422;2022-10-26T00:32:51;5.05;;;2.97;;
40044;SDS011;25735;48.122;11.422;2022-10-26T00:35:17;3.72;;;2.60;;
40044;SDS011;25735;48.122;11.422;2022-10-26T00:37:42;4.10;;;2.72;;
40044;SDS011;25735;48.122;11.422;2022-10-26T00:40:08;5.63;;;2.47;;
40044;SDS011;25735;48.122;11.422;2022-10-26T00:42:34;3.83;;;3.13;;
40044;SDS011;25735;48.122;11.422;2022-10-26T00:45:00;7.95;;;3.35;;
40044;SDS011;25735;48.122;11.422;2022-10-26T00:47:42;5.03;;;2.92;;
40044;SDS011;25735;48.122;11.422;2022-10-26T00:52:40;6.00;;;3.30;;
40044;SDS011;25735;48.122;11.422;2022-10-26T00:55:06;3.25;;;2.58;;
40044;SDS011;25735;48.122;11.422;2022-10-26T00:57:32;4.90;;;2.60;;
40044;SDS011;25735;48.122;11.422;2022-10-26T00:59:59;2.55;;;2.35;;
40044;SDS011;25735;48.122;11.422;2022-10-26T01:02:25;3.55;;;2.25;;
40044;SDS011;25735;48.122;11.422;2022-10-26T01:04:50;5.18;;;2.53;;
40044;SDS011;25735;48.122;11.422;2022-10-26T01:07:17;2.53;;;2.30;;
40044;SDS011;25735;48.122;11.422;2022-10-26T01:09:42;3.75;;;2.63;;
40044;SDS011;25735;48.122;11.422;2022-10-26T01:12:08;5.30;;;3.00;;
40044;SDS011;25735;48.122;11.422;2022-10-26T01:14:33;4.60;;;2.50;;
40044;SDS011;25735;48.122;11.422;2022-10-26T01:22:41;5.43;;;2.97;;
40044;SDS011;25735;48.122;11.422;2022-10-26T01:25:16;3.20;;;2.42;;
40044;SDS011;25735;48.122;11.422;2022-10-26T01:27:56;2.45;;;1.90;;
40044;SDS011;25735;48.122;11.422;2022-10-26T01:30:41;4.72;;;2.65;;
40044;SDS011;25735;48.122;11.422;2022-10-26T01:33:31;3.78;;;2.53;;
40044;SDS011;25735;48.122;11.422;2022-10-26T01:38:41;4.78;;;2.17;;
40044;SDS011;25735;48.122;11.422;2022-10-26T01:43:54;3.65;;;2.35;;
40044;SDS011;25735;48.122;11.422;2022-10-26T01:46:22;4.68;;;2.35;;
40044;SDS011;25735;48.122;11.422;2022-10-26T01:48:52;3.10;;;2.45;;
40044;SDS011;25735;48.122;11.422;2022-10-26T01:51:21;4.00;;;2.17;;
40044;SDS011;25735;48.122;11.422;2022-10-26T01:53:47;4.22;;;2.42;;
40044;SDS011;25735;48.122;11.422;2022-10-26T01:56:14;4.40;;;2.22;;
40044;SDS011;25735;48.122;11.422;2022-10-26T02:04:24;4.35;;;2.30;;
40044;SDS011;25735;48.122;11.422;2022-10-26T02:07:08;3.35;;;2.15;;
40044;SDS011;25735;48.122;11.422;2022-10-26T02:09:50;5.00;;;2.55;;
40044;SDS011;25735;48.122;11.422;2022-10-26T02:17:18;5.68;;;2.50;;
40044;SDS011;25735;48.122;11.422;2022-10-26T02:19:53;2.40;;;1.90;;
40044;SDS011;25735;48.122;11.422;2022-10-26T02:22:34;3.72;;;2.28;;
40044;SDS011;25735;48.122;11.422;2022-10-26T02:25:03;2.95;;;2.15;;
40044;SDS011;25735;48.122;11.422;2022-10-26T02:27:34;2.80;;;2.00;;
40044;SDS011;25735;48.122;11.422;2022-10-26T02:30:04;5.00;;;2.08;;
40044;SDS011;25735;48.122;11.422;2022-10-26T02:32:31;4.18;;;2.30;;
40044;SDS011;25735;48.122;11.422;2022-10-26T02:35:00;2.85;;;1.95;;
40044;SDS011;25735;48.122;11.422;2022-10-26T02:37:26;5.53;;;2.05;;
40044;SDS011;25735;48.122;11.422;2022-10-26T02:39:53;4.45;;;2.53;;
40044;SDS011;25735;48.122;11.422;2022-10-26T02:42:20;3.72;;;1.85;;
40044;SDS011;25735;48.122;11.422;2022-10-26T02:44:52;2.50;;;1.80;;
40044;SDS011;25735;48.122;11.422;2022-10-26T02:47:22;4.72;;;2.28;;
40044;SDS011;25735;48.122;11.422;2022-10-26T02:49:48;6.90;;;2.05;;
40044;SDS011;25735;48.122;11.422;2022-10-26T02:52:21;6.90;;;2.15;;
40044;SDS011;25735;48.122;11.422;2022-10-26T02:57:37;3.58;;;1.88;;
40044;SDS011;25735;48.122;11.422;2022-10-26T03:00:08;5.50;;;2.25;;
40044;SDS011;25735;48.122;11.422;2022-10-26T03:02:37;3.22;;;2.00;;
40044;SDS011;25735;48.122;11.422;2022-10-26T03:05:06;2.38;;;1.77;;
40044;SDS011;25735;48.122;11.422;2022-10-26T03:07:36;4.72;;;2.22;;
40044;SDS011;25735;48.122;11.422;2022-10-26T03:10:01;3.70;;;2.22;;
40044;SDS011;25735;48.122;11.422;2022-10-26T03:12:26;2.47;;;1.80;;
40044;SDS011;25735;48.122;11.422;2022-10-26T03:14:52;4.40;;;2.05;;
40044;SDS011;25735;48.122;11.422;2022-10-26T03:17:17;5.50;;;2.22;;
40044;SDS011;25735;48.122;11.422;2022-10-26T03:19:42;2.35;;;1.80;;
40044;SDS011;25735;48.122;11.422;2022-10-26T03:22:07;3.97;;;1.98;;
40044;SDS011;25735;48.122;11.422;2022-10-26T03:24:33;3.72;;;1.88;;
40044;SDS011;25735;48.122;11.422;2022-10-26T03:26:58;4.93;;;2.40;;
40044;SDS011;25735;48.122;11.422;2022-10-26T03:29:23;5.28;;;2.35;;
40044;SDS011;25735;48.122;11.422;2022-10-26T03:31:48;3.60;;;2.17;;
40044;SDS011;25735;48.122;11.422;2022-10-26T03:34:18;3.67;;;2.22;;
40044;SDS011;25735;48.122;11.422;2022-10-26T03:36:43;2.58;;;1.88;;
40044;SDS011;25735;48.122;11.422;2022-10-26T03:39:09;3.47;;;1.90;;
40044;SDS011;25735;48.122;11.422;2022-10-26T03:41:34;2.63;;;1.90;;
40044;SDS011;25735;48.122;11.422;2022-10-26T03:43:59;3.30;;;1.88;;
40044;SDS011;25735;48.122;11.422;2022-10-26T03:46:24;2.97;;;1.80;;
40044;SDS011;25735;48.122;11.422;2022-10-26T03:48:50;2.08;;;1.88;;
40044;SDS011;25735;48.122;11.422;2022-10-26T03:51:15;3.13;;;1.70;;
40044;SDS011;25735;48.122;11.422;2022-10-26T03:53:40;4.53;;;1.83;;
40044;SDS011;25735;48.122;11.422;2022-10-26T03:56:05;3.65;;;1.75;;
40044;SDS011;25735;48.122;11.422;2022-10-26T03:58:31;4.25;;;2.08;;
40044;SDS011;25735;48.122;11.422;2022-10-26T04:00:56;4.45;;;1.95;;
40044;SDS011;25735;48.122;11.422;2022-10-26T04:03:21;3.53;;;1.92;;
40044;SDS011;25735;48.122;11.422;2022-10-26T04:05:47;3.30;;;1.88;;
40044;SDS011;25735;48.122;11.422;2022-10-26T04:08:12;2.83;;;1.70;;
40044;SDS011;25735;48.122;11.422;2022-10-26T04:10:37;3.03;;;2.10;;
40044;SDS011;25735;48.122;11.422;2022-10-26T04:13:03;5.50;;;1.50;;
40044;SDS011;25735;48.122;11.422;2022-10-26T04:15:28;2.15;;;1.33;;
40044;SDS011;25735;48.122;11.422;2022-10-26T04:17:54;4.03;;;1.70;;
40044;SDS011;25735;48.122;11.422;2022-10-26T04:20:23;2.65;;;1.45;;
40044;SDS011;25735;48.122;11.422;2022-10-26T04:22:59;2.28;;;1.40;;
40044;SDS011;25735;48.122;11.422;2022-10-26T04:25:25;1.70;;;1.48;;
40044;SDS011;25735;48.122;11.422;2022-10-26T04:27:51;4.22;;;2.08;;
40044;SDS011;25735;48.122;11.422;2022-10-26T04:30:16;2.50;;;1.50;;
40044;SDS011;25735;48.122;11.422;2022-10-26T04:32:42;2.60;;;1.60;;
40044;SDS011;25735;48.122;11.422;2022-10-26T04:35:07;3.25;;;1.60;;
40044;SDS011;25735;48.122;11.422;2022-10-26T04:37:33;2.47;;;1.73;;
40044;SDS011;25735;48.122;11.422;2022-10-26T04:39:58;2.63;;;1.55;;
40044;SDS011;25735;48.122;11.422;2022-10-26T04:42:23;3.63;;;1.50;;
40044;SDS011;25735;48.122;11.422;2022-10-26T04:44:48;3.47;;;1.83;;
40044;SDS011;25735;48.122;11.422;2022-10-26T04:47:14;1.55;;;1.40;;
40044;SDS011;25735;48.122;11.422;2022-10-26T04:49:39;1.92;;;1.40;;
40044;SDS011;25735;48.122;11.422;2022-10-26T04:52:04;1.42;;;1.20;;
40044;SDS011;25735;48.122;11.422;2022-10-26T04:54:30;3.10;;;1.63;;
40044;SDS011;25735;48.122;11.422;2022-10-26T04:56:55;2.35;;;1.52;;
40044;SDS011;25735;48.122;11.422;2022-10-26T04:59:20;1.80;;;1.35;;
40044;SDS011;25735;48.122;11.422;2022-10-26T05:01:46;1.17;;;1.00;;
40044;SDS011;25735;48.122;11.422;2022-10-26T05:04:11;2.47;;;1.25;;
40044;SDS011;25735;48.122;11.422;2022-10-26T05:06:36;1.33;;;1.05;;
40044;SDS011;25735;48.122;11.422;2022-10-26T05:09:02;1.58;;;1.15;;
40044;SDS011;25735;48.122;11.422;2022-10-26T05:11:27;2.70;;;1.02;;
40044;SDS011;25735;48.122;11.422;2022-10-26T05:13:52;1.17;;;1.08;;
40044;SDS011;25735;48.122;11.422;2022-10-26T05:16:18;4.50;;;1.35;;
40044;SDS011;25735;48.122;11.422;2022-10-26T05:18:43;2.35;;;1.48;;
40044;SDS011;25735;48.122;11.422;2022-10-26T05:21:08;2.53;;;1.35;;
40044;SDS011;25735;48.122;11.422;2022-10-26T05:23:33;1.50;;;1.17;;
40044;SDS011;25735;48.122;11.422;2022-10-26T05:25:59;2.33;;;1.23;;
40044;SDS011;25735;48.122;11.422;2022-10-26T05:28:24;3.22;;;1.27;;
40044;SDS011;25735;48.122;11.422;2022-10-26T05:30:49;1.77;;;1.20;;
40044;SDS011;25735;48.122;11.422;2022-10-26T05:33:14;3.33;;;1.20;;
40044;SDS011;25735;48.122;11.422;2022-10-26T05:35:40;4.13;;;1.40;;
40044;SDS011;25735;48.122;11.422;2022-10-26T05:38:06;5.82;;;1.55;;
40044;SDS011;25735;48.122;11.422;2022-10-26T05:40:33;4.22;;;1.50;;
40044;SDS011;25735;48.122;11.422;2022-10-26T05:43:02;3.22;;;1.58;;
40044;SDS011;25735;48.122;11.422;2022-10-26T05:45:28;1.90;;;1.38;;
40044;SDS011;25735;48.122;11.422;2022-10-26T05:47:53;3.85;;;1.38;;
40044;SDS011;25735;48.122;11.422;2022-10-26T05:50:19;2.58;;;1.45;;
40044;SDS011;25735;48.122;11.422;2022-10-26T05:52:45;3.00;;;1.20;;
40044;SDS011;25735;48.122;11.422;2022-10-26T05:55:12;2.15;;;1.13;;
40044;SDS011;25735;48.122;11.422;2022-10-26T05:57:39;2.05;;;1.27;;
40044;SDS011;25735;48.122;11.422;2022-10-26T06:05:53;3.03;;;1.40;;
40044;SDS011;25735;48.122;11.422;2022-10-26T06:08:24;4.90;;;1.60;;
40044;SDS011;25735;48.122;11.422;2022-10-26T06:10:51;3.58;;;1.52;;
40044;SDS011;25735;48.122;11.422;2022-10-26T06:13:18;3.47;;;1.55;;
40044;SDS011;25735;48.122;11.422;2022-10-26T06:18:52;5.00;;;1.63;;
40044;SDS011;25735;48.122;11.422;2022-10-26T06:29:58;1.67;;;1.40;;
40044;SDS011;25735;48.122;11.422;2022-10-26T06:32:34;6.68;;;1.77;;
40044;SDS011;25735;48.122;11.422;2022-10-26T06:35:05;2.10;;;1.20;;
40044;SDS011;25735;48.122;11.422;2022-10-26T06:37:40;5.13;;;1.38;;
40044;SDS011;25735;48.122;11.422;2022-10-26T06:40:07;4.40;;;1.35;;
40044;SDS011;25735;48.122;11.422;2022-10-26T06:42:35;4.13;;;1.20;;
40044;SDS011;25735;48.122;11.422;2022-10-26T06:45:01;2.33;;;1.50;;
40044;SDS011;25735;48.122;11.422;2022-10-26T06:47:35;2.08;;;1.65;;
40044;SDS011;25735;48.122;11.422;2022-10-26T06:55:29;4.22;;;1.77;;
40044;SDS011;25735;48.122;11.422;2022-10-26T06:58:04;3.78;;;2.22;;
40044;SDS011;25735;48.122;11.422;2022-10-26T07:00:31;3.75;;;2.25;;
40044;SDS011;25735;48.122;11.422;2022-10-26T07:02:57;3.88;;;2.80;;
40044;SDS011;25735;48.122;11.422;2022-10-26T07:05:24;4.18;;;2.90;;
40044;SDS011;25735;48.122;11.422;2022-10-26T07:07:49;3.70;;;2.28;;
40044;SDS011;25735;48.122;11.422;2022-10-26T07:10:14;4.97;;;2.75;;
40044;SDS011;25735;48.122;11.422;2022-10-26T07:12:40;9.07;;;2.25;;
40044;SDS011;25735;48.122;11.422;2022-10-26T07:15:05;2.15;;;1.30;;
40044;SDS011;25735;48.122;11.422;2022-10-26T07:17:41;2.38;;;1.60;;
40044;SDS011;25735;48.122;11.422;2022-10-26T07:20:10;3.70;;;1.20;;
40044;SDS011;25735;48.122;11.422;2022-10-26T07:22:50;2.90;;;1.30;;
40044;SDS011;25735;48.122;11.422;2022-10-26T07:25:19;2.70;;;1.48;;
40044;SDS011;25735;48.122;11.422;2022-10-26T07:27:44;2.10;;;1.35;;
40044;SDS011;25735;48.122;11.422;2022-10-26T07:30:10;2.05;;;1.13;;
40044;SDS011;25735;48.122;11.422;2022-10-26T07:32:35;10.20;;;2.75;;
40044;SDS011;25735;48.122;11.422;2022-10-26T07:35:00;1.83;;;1.40;;
40044;SDS011;25735;48.122;11.422;2022-10-26T07:37:26;6.65;;;1.60;;
40044;SDS011;25735;48.122;11.422;2022-10-26T07:39:52;6.97;;;2.42;;
40044;SDS011;25735;48.122;11.422;2022-10-26T07:42:17;3.40;;;1.67;;
40044;SDS011;25735;48.122;11.422;2022-10-26T07:44:42;2.50;;;1.13;;
40044;SDS011;25735;48.122;11.422;2022-10-26T07:47:08;1.13;;;1.02;;
40044;SDS011;25735;48.122;11.422;2022-10-26T07:49:33;2.58;;;1.17;;
40044;SDS011;25735;48.122;11.422;2022-10-26T07:51:58;1.77;;;0.90;;
40044;SDS011;25735;48.122;11.422;2022-10-26T07:54:24;2.42;;;1.10;;
40044;SDS011;25735;48.122;11.422;2022-10-26T07:56:49;2.95;;;1.00;;
40044;SDS011;25735;48.122;11.422;2022-10-26T07:59:14;1.63;;;0.82;;
40044;SDS011;25735;48.122;11.422;2022-10-26T08:01:41;3.90;;;1.05;;
40044;SDS011;25735;48.122;11.422;2022-10-26T08:04:06;1.52;;;0.88;;
40044;SDS011;25735;48.122;11.422;2022-10-26T08:06:31;2.72;;;1.02;;
40044;SDS011;25735;48.122;11.422;2022-10-26T08:08:57;4.20;;;1.17;;
40044;SDS011;25735;48.122;11.422;2022-10-26T08:11:23;3.50;;;1.08;;
40044;SDS011;25735;48.122;11.422;2022-10-26T08:13:50;3.72;;;0.85;;
40044;SDS011;25735;48.122;11.422;2022-10-26T08:16:19;1.30;;;0.85;;
40044;SDS011;25735;48.122;11.422;2022-10-26T08:18:48;2.40;;;0.70;;
40044;SDS011;25735;48.122;11.422;2022-10-26T08:21:14;1.40;;;0.80;;
40044;SDS011;25735;48.122;11.422;2022-10-26T08:23:39;1.80;;;0.77;;
40044;SDS011;25735;48.122;11.422;2022-10-26T08:26:05;2.13;;;0.90;;
40044;SDS011;25735;48.122;11.422;2022-10-26T08:28:31;0.60;;;0.57;;
40044;SDS011;25735;48.122;11.422;2022-10-26T08:30:56;3.08;;;0.98;;
40044;SDS011;25735;48.122;11.422;2022-10-26T08:33:22;1.30;;;0.75;;
40044;SDS011;25735;48.122;11.422;2022-10-26T08:35:53;2.08;;;0.63;;
40044;SDS011;25735;48.122;11.422;2022-10-26T08:38:25;1.67;;;0.60;;
40044;SDS011;25735;48.122;11.422;2022-10-26T08:40:51;1.63;;;0.90;;
40044;SDS011;25735;48.122;11.422;2022-10-26T08:46:03;2.22;;;0.90;;
40044;SDS011;25735;48.122;11.422;2022-10-26T08:48:34;3.20;;;1.38;;
40044;SDS011;25735;48.122;11.422;2022-10-26T08:51:05;3.13;;;1.20;;
40044;SDS011;25735;48.122;11.422;2022-10-26T08:53:36;2.35;;;0.70;;
40044;SDS011;25735;48.122;11.422;2022-10-26T08:56:19;3.78;;;0.90;;
40044;SDS011;25735;48.122;11.422;2022-10-26T08:58:55;3.30;;;0.88;;
40044;SDS011;25735;48.122;11.422;2022-10-26T09:01:29;2.95;;;1.15;;
40044;SDS011;25735;48.122;11.422;2022-10-26T09:03:55;2.25;;;0.70;;
40044;SDS011;25735;48.122;11.422;2022-10-26T09:06:32;1.02;;;0.60;;
40044;SDS011;25735;48.122;11.422;2022-10-26T09:09:06;1.67;;;0.55;;
40044;SDS011;25735;48.122;11.422;2022-10-26T09:17:10;4.40;;;1.00;;
40044;SDS011;25735;48.122;11.422;2022-10-26T09:25:03;2.50;;;0.70;;
40044;SDS011;25735;48.122;11.422;2022-10-26T09:27:40;1.15;;;0.70;;
40044;SDS011;25735;48.122;11.422;2022-10-26T09:30:12;1.52;;;0.57;;
40044;SDS011;25735;48.122;11.422;2022-10-26T09:32:40;2.60;;;0.85;;
40044;SDS011;25735;48.122;11.422;2022-10-26T09:35:12;3.20;;;1.80;;
40044;SDS011;25735;48.122;11.422;2022-10-26T09:37:42;3.10;;;0.80;;
40044;SDS011;25735;48.122;11.422;2022-10-26T09:40:15;1.52;;;0.60;;
40044;SDS011;25735;48.122;11.422;2022-10-26T09:42:49;3.30;;;0.77;;
40044;SDS011;25735;48.122;11.422;2022-10-26T09:45:32;2.38;;;0.80;;
40044;SDS011;25735;48.122;11.422;2022-10-26T09:48:11;4.03;;;0.75;;
40044;SDS011;25735;48.122;11.422;2022-10-26T09:50:42;2.50;;;0.95;;
40044;SDS011;25735;48.122;11.422;2022-10-26T09:53:10;0.85;;;0.65;;
40044;SDS011;25735;48.122;11.422;2022-10-26T09:55:38;3.30;;;0.90;;
40044;SDS011;25735;48.122;11.422;2022-10-26T09:58:09;1.55;;;0.95;;
40044;SDS011;25735;48.122;11.422;2022-10-26T10:00:56;5.75;;;0.90;;
40044;SDS011;25735;48.122;11.422;2022-10-26T10:03:26;2.13;;;0.73;;
40044;SDS011;25735;48.122;11.422;2022-10-26T10:05:53;1.35;;;0.90;;
40044;SDS011;25735;48.122;11.422;2022-10-26T10:08:40;1.30;;;0.70;;
40044;SDS011;25735;48.122;11.422;2022-10-26T10:11:09;5.75;;;0.90;;
40044;SDS011;25735;48.122;11.422;2022-10-26T10:13:45;5.63;;;1.00;;
40044;SDS011;25735;48.122;11.422;2022-10-26T10:16:11;2.55;;;0.93;;
40044;SDS011;25735;48.122;11.422;2022-10-26T10:18:43;1.85;;;1.02;;
40044;SDS011;25735;48.122;11.422;2022-10-26T10:21:17;5.03;;;0.98;;
40044;SDS011;25735;48.122;11.422;2022-10-26T10:23:50;3.15;;;0.93;;
40044;SDS011;25735;48.122;11.422;2022-10-26T10:26:17;2.17;;;0.65;;
40044;SDS011;25735;48.122;11.422;2022-10-26T10:28:42;1.92;;;0.73;;
40044;SDS011;25735;48.122;11.422;2022-10-26T10:31:21;7.18;;;1.02;;
40044;SDS011;25735;48.122;11.422;2022-10-26T10:33:52;6.15;;;0.90;;
40044;SDS011;25735;48.122;11.422;2022-10-26T10:36:19;1.50;;;0.70;;
40044;SDS011;25735;48.122;11.422;2022-10-26T10:38:47;8.05;;;1.35;;
40044;SDS011;25735;48.122;11.422;2022-10-26T10:43:52;2.00;;;0.88;;
40044;SDS011;25735;48.122;11.422;2022-10-26T10:46:20;3.60;;;1.20;;
40044;SDS011;25735;48.122;11.422;2022-10-26T10:48:53;2.72;;;1.00;;
40044;SDS011;25735;48.122;11.422;2022-10-26T10:51:25;3.80;;;0.80;;
40044;SDS011;25735;48.122;11.422;2022-10-26T10:53:52;4.78;;;1.50;;
40044;SDS011;25735;48.122;11.422;2022-10-26T10:59:02;5.13;;;1.88;;
40044;SDS011;25735;48.122;11.422;2022-10-26T11:07:51;2.42;;;1.20;;
40044;SDS011;25735;48.122;11.422;2022-10-26T11:10:19;3.13;;;1.27;;
40044;SDS011;25735;48.122;11.422;2022-10-26T11:12:52;3.38;;;1.08;;
40044;SDS011;25735;48.122;11.422;2022-10-26T11:15:22;2.90;;;0.90;;
40044;SDS011;25735;48.122;11.422;2022-10-26T11:17:54;3.55;;;1.27;;
40044;SDS011;25735;48.122;11.422;2022-10-26T11:20:23;4.30;;;1.13;;
40044;SDS011;25735;48.122;11.422;2022-10-26T11:23:02;4.22;;;1.42;;
40044;SDS011;25735;48.122;11.422;2022-10-26T11:26:35;6.32;;;1.20;;
40044;SDS011;25735;48.122;11.422;2022-10-26T11:28:40;4.78;;;1.60;;
40044;SDS011;25735;48.122;11.422;2022-10-26T11:31:13;5.65;;;1.85;;
40044;SDS011;25735;48.122;11.422;2022-10-26T11:36:13;4.82;;;1.15;;
40044;SDS011;25735;48.122;11.422;2022-10-26T11:38:44;4.93;;;1.02;;
40044;SDS011;25735;48.122;11.422;2022-10-26T11:41:18;3.47;;;1.10;;
40044;SDS011;25735;48.122;11.422;2022-10-26T11:44:34;4.97;;;1.25;;
40044;SDS011;25735;48.122;11.422;2022-10-26T11:46:55;4.47;;;1.33;;
40044;SDS011;25735;48.122;11.422;2022-10-26T11:49:37;3.28;;;1.50;;
40044;SDS011;25735;48.122;11.422;2022-10-26T11:52:12;5.75;;;1.42;;
40044;SDS011;25735;48.122;11.422;2022-10-26T11:57:21;3.60;;;1.30;;
40044;SDS011;25735;48.122;11.422;2022-10-26T11:59:59;6.70;;;1.23;;
40044;SDS011;25735;48.122;11.422;2022-10-26T12:02:27;4.05;;;1.42;;
40044;SDS011;25735;48.122;11.422;2022-10-26T12:04:54;6.80;;;1.83;;
40044;SDS011;25735;48.122;11.422;2022-10-26T12:07:37;5.63;;;2.05;;
40044;SDS011;25735;48.122;11.422;2022-10-26T12:10:05;6.18;;;1.88;;
40044;SDS011;25735;48.122;11.422;2022-10-26T12:12:39;7.85;;;2.60;;
40044;SDS011;25735;48.122;11.422;2022-10-26T12:23:29;6.15;;;2.05;;
40044;SDS011;25735;48.122;11.422;2022-10-26T12:28:47;5.72;;;2.05;;
40044;SDS011;25735;48.122;11.422;2022-10-26T12:33:57;8.77;;;2.35;;
40044;SDS011;25735;48.122;11.422;2022-10-26T12:39:25;5.65;;;1.90;;
40044;SDS011;25735;48.122;11.422;2022-10-26T12:41:54;6.97;;;1.20;;
40044;SDS011;25735;48.122;11.422;2022-10-26T12:44:34;7.93;;;1.90;;
40044;SDS011;25735;48.122;11.422;2022-10-26T12:47:58;6.97;;;1.70;;
40044;SDS011;25735;48.122;11.422;2022-10-26T13:00:46;8.25;;;2.58;;
40044;SDS011;25735;48.122;11.422;2022-10-26T13:08:52;6.68;;;2.20;;
40044;SDS011;25735;48.122;11.422;2022-10-26T13:14:17;9.25;;;2.90;;
40044;SDS011;25735;48.122;11.422;2022-10-26T13:16:44;4.00;;;1.20;;
40044;SDS011;25735;48.122;11.422;2022-10-26T13:19:24;5.63;;;1.95;;
40044;SDS011;25735;48.122;11.422;2022-10-26T13:21:51;6.05;;;2.03;;
40044;SDS011;25735;48.122;11.422;2022-10-26T13:24:17;4.75;;;1.30;;
40044;SDS011;25735;48.122;11.422;2022-10-26T13:29:32;7.55;;;2.53;;
40044;SDS011;25735;48.122;11.422;2022-10-26T13:32:17;6.00;;;1.38;;
40044;SDS011;25735;48.122;11.422;2022-10-26T13:34:43;5.20;;;1.50;;
40044;SDS011;25735;48.122;11.422;2022-10-26T13:37:16;3.42;;;1.48;;
40044;SDS011;25735;48.122;11.422;2022-10-26T13:39:46;5.45;;;1.33;;
40044;SDS011;25735;48.122;11.422;2022-10-26T13:42:14;3.92;;;1.40;;
40044;SDS011;25735;48.122;11.422;2022-10-26T13:44:52;3.05;;;1.33;;
40044;SDS011;25735;48.122;11.422;2022-10-26T13:49:59;6.43;;;1.65;;
40044;SDS011;25735;48.122;11.422;2022-10-26T13:52:32;3.60;;;1.23;;
40044;SDS011;25735;48.122;11.422;2022-10-26T13:55:01;3.55;;;1.23;;
40044;SDS011;25735;48.122;11.422;2022-10-26T13:57:33;4.72;;;1.52;;
40044;SDS011;25735;48.122;11.422;2022-10-26T14:00:06;4.88;;;1.73;;
40044;SDS011;25735;48.122;11.422;2022-10-26T14:02:40;4.22;;;1.52;;
40044;SDS011;25735;48.122;11.422;2022-10-26T14:05:14;7.32;;;1.75;;
40044;SDS011;25735;48.122;11.422;2022-10-26T14:07:46;7.10;;;2.95;;
40044;SDS011;25735;48.122;11.422;2022-10-26T14:10:26;4.05;;;1.55;;
40044;SDS011;25735;48.122;11.422;2022-10-26T14:12:58;6.72;;;1.65;;
40044;SDS011;25735;48.122;11.422;2022-10-26T14:15:29;4.10;;;1.88;;
40044;SDS011;25735;48.122;11.422;2022-10-26T14:17:55;2.50;;;1.55;;
40044;SDS011;25735;48.122;11.422;2022-10-26T14:20:23;5.35;;;1.40;;
40044;SDS011;25735;48.122;11.422;2022-10-26T14:22:50;4.38;;;1.70;;
40044;SDS011;25735;48.122;11.422;2022-10-26T14:25:18;4.38;;;2.28;;
40044;SDS011;25735;48.122;11.422;2022-10-26T14:27:45;6.55;;;1.75;;
40044;SDS011;25735;48.122;11.422;2022-10-26T14:32:55;4.45;;;1.58;;
40044;SDS011;25735;48.122;11.422;2022-10-26T14:35:22;5.07;;;2.03;;
40044;SDS011;25735;48.122;11.422;2022-10-26T14:37:51;4.18;;;2.15;;
40044;SDS011;25735;48.122;11.422;2022-10-26T14:40:18;4.97;;;2.75;;
40044;SDS011;25735;48.122;11.422;2022-10-26T14:42:50;8.77;;;2.00;;
40044;SDS011;25735;48.122;11.422;2022-10-26T14:47:49;3.23;;;1.30;;
40044;SDS011;25735;48.122;11.422;2022-10-26T14:50:18;4.63;;;1.95;;
40044;SDS011;25735;48.122;11.422;2022-10-26T14:52:49;7.28;;;1.65;;
40044;SDS011;25735;48.122;11.422;2022-10-26T14:55:16;5.88;;;1.50;;
40044;SDS011;25735;48.122;11.422;2022-10-26T14:57:43;5.57;;;1.73;;
40044;SDS011;25735;48.122;11.422;2022-10-26T15:02:40;6.55;;;2.15;;
40044;SDS011;25735;48.122;11.422;2022-10-26T15:07:48;6.50;;;1.90;;
40044;SDS011;25735;48.122;11.422;2022-10-26T15:13:31;7.95;;;2.13;;
40044;SDS011;25735;48.122;11.422;2022-10-26T15:15:57;6.57;;;1.73;;
40044;SDS011;25735;48.122;11.422;2022-10-26T15:18:34;4.50;;;1.92;;
40044;SDS011;25735;48.122;11.422;2022-10-26T15:21:02;7.07;;;2.28;;
40044;SDS011;25735;48.122;11.422;2022-10-26T15:23:31;5.60;;;2.90;;
40044;SDS011;25735;48.122;11.422;2022-10-26T15:25:57;9.82;;;5.15;;
40044;SDS011;25735;48.122;11.422;2022-10-26T15:28:28;6.70;;;4.05;;
40044;SDS011;25735;48.122;11.422;2022-10-26T15:33:39;3.90;;;2.08;;
40044;SDS011;25735;48.122;11.422;2022-10-26T15:38:32;6.68;;;1.85;;
40044;SDS011;25735;48.122;11.422;2022-10-26T15:40:58;4.15;;;1.67;;
40044;SDS011;25735;48.122;11.422;2022-10-26T15:43:23;4.95;;;2.50;;
40044;SDS011;25735;48.122;11.422;2022-10-26T15:45:49;7.30;;;2.00;;
40044;SDS011;25735;48.122;11.422;2022-10-26T15:48:21;4.97;;;1.80;;
40044;SDS011;25735;48.122;11.422;2022-10-26T15:50:50;7.82;;;2.00;;
40044;SDS011;25735;48.122;11.422;2022-10-26T15:53:17;5.72;;;1.95;;
40044;SDS011;25735;48.122;11.422;2022-10-26T15:55:51;3.00;;;1.15;;
40044;SDS011;25735;48.122;11.422;2022-10-26T15:58:18;6.47;;;1.55;;
40044;SDS011;25735;48.122;11.422;2022-10-26T16:00:44;3.15;;;1.80;;
40044;SDS011;25735;48.122;11.422;2022-10-26T16:03:12;6.30;;;2.67;;
40044;SDS011;25735;48.122;11.422;2022-10-26T16:05:40;5.72;;;1.63;;
40044;SDS011;25735;48.122;11.422;2022-10-26T16:08:07;4.57;;;2.05;;
40044;SDS011;25735;48.122;11.422;2022-10-26T16:10:35;11.30;;;2.50;;
40044;SDS011;25735;48.122;11.422;2022-10-26T16:13:01;5.72;;;2.38;;
40044;SDS011;25735;48.122;11.422;2022-10-26T16:15:26;8.82;;;2.83;;
40044;SDS011;25735;48.122;11.422;2022-10-26T16:17:51;6.18;;;2.92;;
40044;SDS011;25735;48.122;11.422;2022-10-26T16:20:21;6.13;;;2.55;;
40044;SDS011;25735;48.122;11.422;2022-10-26T16:22:48;5.90;;;2.72;;
40044;SDS011;25735;48.122;11.422;2022-10-26T16:25:15;4.88;;;3.10;;
40044;SDS011;25735;48.122;11.422;2022-10-26T16:27:41;6.18;;;2.60;;
40044;SDS011;25735;48.122;11.422;2022-10-26T16:30:07;3.45;;;2.67;;
40044;SDS011;25735;48.122;11.422;2022-10-26T16:32:33;6.68;;;2.90;;
40044;SDS011;25735;48.122;11.422;2022-10-26T16:34:58;5.70;;;2.50;;
40044;SDS011;25735;48.122;11.422;2022-10-26T16:37:24;7.22;;;2.35;;
40044;SDS011;25735;48.122;11.422;2022-10-26T16:39:49;7.65;;;2.33;;
40044;SDS011;25735;48.122;11.422;2022-10-26T16:42:14;6.80;;;2.17;;
40044;SDS011;25735;48.122;11.422;2022-10-26T16:44:39;11.43;;;5.90;;
40044;SDS011;25735;48.122;11.422;2022-10-26T16:47:05;9.27;;;6.05;;
40044;SDS011;25735;48.122;11.422;2022-10-26T16:49:30;11.60;;;5.10;;
40044;SDS011;25735;48.122;11.422;2022-10-26T16:51:55;10.10;;;3.67;;
40044;SDS011;25735;48.122;11.422;2022-10-26T16:54:21;7.00;;;2.33;;
40044;SDS011;25735;48.122;11.422;2022-10-26T16:56:47;5.45;;;2.05;;
40044;SDS011;25735;48.122;11.422;2022-10-26T16:59:13;5.70;;;2.35;;
40044;SDS011;25735;48.122;11.422;2022-10-26T17:01:38;6.30;;;3.95;;
40044;SDS011;25735;48.122;11.422;2022-10-26T17:04:03;8.38;;;4.82;;
40044;SDS011;25735;48.122;11.422;2022-10-26T17:06:29;10.75;;;6.05;;